sensor_id;sensor_type;location;lat;lon;timestamp;P1;P2;P0
79537;PMS5003;68989;52.032;5.152;2023-07-09T00:00:10;17;17;
79537;PMS5003;68989;52.032;5.152;2023-07-09T00:02:40;18;15;
79537;PMS5003;68989;52.032;5.152;2023-07-09T00:05:09;17;15;
79537;PMS5003;68989;52.032;5.152;2023-07-09T00:07:38;19;19;
79537;PMS5003;68989;52.032;5.152;2023-07-09T00:10:12;20;16;
79537;PMS5003;68989;52.032;5.152;2023-07-09T00:10:14;19;15;
79537;PMS5003;68989;52.032;5.152;2023-07-09T00:12:42;16;16;
79537;PMS5003;68989;52.032;5.152;2023-07-09T00:15:11;17;16;
79537;PMS5003;68989;52.032;5.152;2023-07-09T00:17:38;19;16;
79537;PMS5003;68989;52.032;5.152;2023-07-09T00:20:05;17;16;
79537;PMS5003;68989;52.032;5.152;2023-07-09T00:22:37;18;17;
79537;PMS5003;68989;52.032;5.152;2023-07-09T00:25:04;18;16;
79537;PMS5003;68989;52.032;5.152;2023-07-09T00:27:33;17;16;
79537;PMS5003;68989;52.032;5.152;2023-07-09T00:30:01;17;14;
79537;PMS5003;68989;52.032;5.152;2023-07-09T00:32:29;16;16;
79537;PMS5003;68989;52.032;5.152;2023-07-09T00:34:56;16;16;
79537;PMS5003;68989;52.032;5.152;2023-07-09T00:37:23;18;17;
79537;PMS5003;68989;52.032;5.152;2023-07-09T00:39:51;18;17;
79537;PMS5003;68989;52.032;5.152;2023-07-09T00:42:20;19;17;
79537;PMS5003;68989;52.032;5.152;2023-07-09T00:44:50;15;15;
79537;PMS5003;68989;52.032;5.152;2023-07-09T00:47:21;20;17;
79537;PMS5003;68989;52.032;5.152;2023-07-09T00:49:51;16;15;
79537;PMS5003;68989;52.032;5.152;2023-07-09T00:52:28;18;17;
79537;PMS5003;68989;52.032;5.152;2023-07-09T00:55:00;16;15;
79537;PMS5003;68989;52.032;5.152;2023-07-09T00:57:32;18;18;
79537;PMS5003;68989;52.032;5.152;2023-07-09T01:00:03;16;16;
79537;PMS5003;68989;52.032;5.152;2023-07-09T01:02:34;16;16;
79537;PMS5003;68989;52.032;5.152;2023-07-09T01:05:01;19;17;
79537;PMS5003;68989;52.032;5.152;2023-07-09T01:07:30;16;16;
79537;PMS5003;68989;52.032;5.152;2023-07-09T01:09:57;19;16;
79537;PMS5003;68989;52.032;5.152;2023-07-09T01:12:24;18;18;
79537;PMS5003;68989;52.032;5.152;2023-07-09T01:14:53;18;18;
79537;PMS5003;68989;52.032;5.152;2023-07-09T01:17:22;15;12;
79537;PMS5003;68989;52.032;5.152;2023-07-09T01:19:50;18;18;
79537;PMS5003;68989;52.032;5.152;2023-07-09T01:22:18;18;18;
79537;PMS5003;68989;52.032;5.152;2023-07-09T01:24:48;16;16;
79537;PMS5003;68989;52.032;5.152;2023-07-09T01:27:19;19;18;
79537;PMS5003;68989;52.032;5.152;2023-07-09T01:29:48;16;16;
79537;PMS5003;68989;52.032;5.152;2023-07-09T01:32:16;17;15;
79537;PMS5003;68989;52.032;5.152;2023-07-09T01:34:45;16;15;
79537;PMS5003;68989;52.032;5.152;2023-07-09T01:37:13;19;16;
79537;PMS5003;68989;52.032;5.152;2023-07-09T01:39:41;19;17;
79537;PMS5003;68989;52.032;5.152;2023-07-09T01:42:09;14;14;
79537;PMS5003;68989;52.032;5.152;2023-07-09T01:44:36;17;16;
79537;PMS5003;68989;52.032;5.152;2023-07-09T01:47:04;17;17;
79537;PMS5003;68989;52.032;5.152;2023-07-09T01:49:31;19;19;
79537;PMS5003;68989;52.032;5.152;2023-07-09T01:51:59;17;17;
79537;PMS5003;68989;52.032;5.152;2023-07-09T01:54:28;15;15;
79537;PMS5003;68989;52.032;5.152;2023-07-09T01:59:41;21;18;
79537;PMS5003;68989;52.032;5.152;2023-07-09T02:02:08;19;18;
79537;PMS5003;68989;52.032;5.152;2023-07-09T02:04:36;18;16;
79537;PMS5003;68989;52.032;5.152;2023-07-09T02:07:03;21;18;
79537;PMS5003;68989;52.032;5.152;2023-07-09T02:09:30;21;19;
79537;PMS5003;68989;52.032;5.152;2023-07-09T02:11:57;18;16;
79537;PMS5003;68989;52.032;5.152;2023-07-09T02:14:24;18;18;
79537;PMS5003;68989;52.032;5.152;2023-07-09T02:16:51;16;16;
79537;PMS5003;68989;52.032;5.152;2023-07-09T02:19:18;17;17;
79537;PMS5003;68989;52.032;5.152;2023-07-09T02:21:45;19;18;
79537;PMS5003;68989;52.032;5.152;2023-07-09T02:24:12;20;18;
79537;PMS5003;68989;52.032;5.152;2023-07-09T02:26:39;20;20;
79537;PMS5003;68989;52.032;5.152;2023-07-09T02:29:07;21;19;
79537;PMS5003;68989;52.032;5.152;2023-07-09T02:31:34;20;19;
79537;PMS5003;68989;52.032;5.152;2023-07-09T02:34:01;21;18;
79537;PMS5003;68989;52.032;5.152;2023-07-09T02:36:27;23;21;
79537;PMS5003;68989;52.032;5.152;2023-07-09T02:38:54;19;19;
79537;PMS5003;68989;52.032;5.152;2023-07-09T02:41:21;20;20;
79537;PMS5003;68989;52.032;5.152;2023-07-09T02:43:49;21;19;
79537;PMS5003;68989;52.032;5.152;2023-07-09T02:46:16;20;18;
79537;PMS5003;68989;52.032;5.152;2023-07-09T02:48:43;17;17;
79537;PMS5003;68989;52.032;5.152;2023-07-09T02:51:11;18;18;
79537;PMS5003;68989;52.032;5.152;2023-07-09T02:53:38;17;17;
79537;PMS5003;68989;52.032;5.152;2023-07-09T02:56:05;20;20;
79537;PMS5003;68989;52.032;5.152;2023-07-09T02:58:32;19;18;
79537;PMS5003;68989;52.032;5.152;2023-07-09T03:00:59;20;20;
79537;PMS5003;68989;52.032;5.152;2023-07-09T03:03:27;20;20;
79537;PMS5003;68989;52.032;5.152;2023-07-09T03:05:54;26;23;
79537;PMS5003;68989;52.032;5.152;2023-07-09T03:08:21;19;19;
79537;PMS5003;68989;52.032;5.152;2023-07-09T03:10:48;20;19;
79537;PMS5003;68989;52.032;5.152;2023-07-09T03:13:16;21;21;
79537;PMS5003;68989;52.032;5.152;2023-07-09T03:15:43;19;17;
79537;PMS5003;68989;52.032;5.152;2023-07-09T03:18:19;22;22;
79537;PMS5003;68989;52.032;5.152;2023-07-09T03:20:46;19;17;
79537;PMS5003;68989;52.032;5.152;2023-07-09T03:23:13;25;21;
79537;PMS5003;68989;52.032;5.152;2023-07-09T03:25:40;22;19;
79537;PMS5003;68989;52.032;5.152;2023-07-09T03:28:07;24;22;
79537;PMS5003;68989;52.032;5.152;2023-07-09T03:30:34;21;20;
79537;PMS5003;68989;52.032;5.152;2023-07-09T03:33:05;21;20;
79537;PMS5003;68989;52.032;5.152;2023-07-09T03:35:33;22;22;
79537;PMS5003;68989;52.032;5.152;2023-07-09T03:38:00;21;20;
79537;PMS5003;68989;52.032;5.152;2023-07-09T03:40:27;21;21;
79537;PMS5003;68989;52.032;5.152;2023-07-09T03:42:54;19;19;
79537;PMS5003;68989;52.032;5.152;2023-07-09T03:45:21;20;20;
79537;PMS5003;68989;52.032;5.152;2023-07-09T03:47:48;18;18;
79537;PMS5003;68989;52.032;5.152;2023-07-09T03:50:15;25;23;
79537;PMS5003;68989;52.032;5.152;2023-07-09T03:52:43;24;21;
79537;PMS5003;68989;52.032;5.152;2023-07-09T03:55:10;22;22;
79537;PMS5003;68989;52.032;5.152;2023-07-09T03:57:37;22;20;
79537;PMS5003;68989;52.032;5.152;2023-07-09T04:00:05;24;21;
79537;PMS5003;68989;52.032;5.152;2023-07-09T04:02:33;24;22;
79537;PMS5003;68989;52.032;5.152;2023-07-09T04:05:00;21;20;
79537;PMS5003;68989;52.032;5.152;2023-07-09T04:07:27;25;23;
79537;PMS5003;68989;52.032;5.152;2023-07-09T04:09:54;21;21;
79537;PMS5003;68989;52.032;5.152;2023-07-09T04:12:23;20;20;
79537;PMS5003;68989;52.032;5.152;2023-07-09T04:14:52;22;22;
79537;PMS5003;68989;52.032;5.152;2023-07-09T04:17:19;23;23;
79537;PMS5003;68989;52.032;5.152;2023-07-09T04:19:46;24;23;
79537;PMS5003;68989;52.032;5.152;2023-07-09T04:22:14;23;21;
79537;PMS5003;68989;52.032;5.152;2023-07-09T04:24:41;22;20;
79537;PMS5003;68989;52.032;5.152;2023-07-09T04:27:08;24;22;
79537;PMS5003;68989;52.032;5.152;2023-07-09T04:29:35;21;19;
79537;PMS5003;68989;52.032;5.152;2023-07-09T04:32:03;23;23;
79537;PMS5003;68989;52.032;5.152;2023-07-09T04:34:31;25;24;
79537;PMS5003;68989;52.032;5.152;2023-07-09T04:36:59;25;24;
79537;PMS5003;68989;52.032;5.152;2023-07-09T04:39:26;23;21;
79537;PMS5003;68989;52.032;5.152;2023-07-09T04:41:53;22;21;
79537;PMS5003;68989;52.032;5.152;2023-07-09T04:44:20;21;20;
79537;PMS5003;68989;52.032;5.152;2023-07-09T04:46:47;23;23;
79537;PMS5003;68989;52.032;5.152;2023-07-09T04:49:14;29;26;
79537;PMS5003;68989;52.032;5.152;2023-07-09T04:51:42;22;22;
79537;PMS5003;68989;52.032;5.152;2023-07-09T04:54:10;25;23;
79537;PMS5003;68989;52.032;5.152;2023-07-09T04:56:37;23;19;
79537;PMS5003;68989;52.032;5.152;2023-07-09T04:59:04;22;21;
79537;PMS5003;68989;52.032;5.152;2023-07-09T05:01:31;25;23;
79537;PMS5003;68989;52.032;5.152;2023-07-09T05:03:58;21;21;
79537;PMS5003;68989;52.032;5.152;2023-07-09T05:06:25;23;22;
79537;PMS5003;68989;52.032;5.152;2023-07-09T05:08:52;22;21;
79537;PMS5003;68989;52.032;5.152;2023-07-09T05:11:19;27;24;
79537;PMS5003;68989;52.032;5.152;2023-07-09T05:13:46;24;22;
79537;PMS5003;68989;52.032;5.152;2023-07-09T05:16:13;24;23;
79537;PMS5003;68989;52.032;5.152;2023-07-09T05:18:40;23;21;
79537;PMS5003;68989;52.032;5.152;2023-07-09T05:21:07;23;21;
79537;PMS5003;68989;52.032;5.152;2023-07-09T05:23:34;25;23;
79537;PMS5003;68989;52.032;5.152;2023-07-09T05:26:02;20;20;
79537;PMS5003;68989;52.032;5.152;2023-07-09T05:28:30;21;21;
79537;PMS5003;68989;52.032;5.152;2023-07-09T05:30:58;24;23;
79537;PMS5003;68989;52.032;5.152;2023-07-09T05:33:25;30;29;
79537;PMS5003;68989;52.032;5.152;2023-07-09T05:35:52;26;26;
79537;PMS5003;68989;52.032;5.152;2023-07-09T05:38:19;33;30;
79537;PMS5003;68989;52.032;5.152;2023-07-09T05:40:46;38;38;
79537;PMS5003;68989;52.032;5.152;2023-07-09T05:43:13;32;32;
79537;PMS5003;68989;52.032;5.152;2023-07-09T05:45:40;36;34;
79537;PMS5003;68989;52.032;5.152;2023-07-09T05:48:07;30;30;
79537;PMS5003;68989;52.032;5.152;2023-07-09T05:50:34;28;26;
79537;PMS5003;68989;52.032;5.152;2023-07-09T05:53:01;30;30;
79537;PMS5003;68989;52.032;5.152;2023-07-09T05:55:29;25;23;
79537;PMS5003;68989;52.032;5.152;2023-07-09T05:57:56;25;25;
79537;PMS5003;68989;52.032;5.152;2023-07-09T06:00:23;25;23;
79537;PMS5003;68989;52.032;5.152;2023-07-09T06:02:51;25;25;
79537;PMS5003;68989;52.032;5.152;2023-07-09T06:05:23;29;29;
79537;PMS5003;68989;52.032;5.152;2023-07-09T06:07:50;27;27;
79537;PMS5003;68989;52.032;5.152;2023-07-09T06:10:17;30;30;
79537;PMS5003;68989;52.032;5.152;2023-07-09T06:12:44;36;35;
79537;PMS5003;68989;52.032;5.152;2023-07-09T06:15:11;34;34;
79537;PMS5003;68989;52.032;5.152;2023-07-09T06:17:38;34;33;
79537;PMS5003;68989;52.032;5.152;2023-07-09T06:20:06;38;36;
79537;PMS5003;68989;52.032;5.152;2023-07-09T06:22:34;35;35;
79537;PMS5003;68989;52.032;5.152;2023-07-09T06:25:01;27;27;
79537;PMS5003;68989;52.032;5.152;2023-07-09T06:27:28;34;33;
79537;PMS5003;68989;52.032;5.152;2023-07-09T06:29:56;32;28;
79537;PMS5003;68989;52.032;5.152;2023-07-09T06:32:23;28;28;
79537;PMS5003;68989;52.032;5.152;2023-07-09T06:34:50;26;25;
79537;PMS5003;68989;52.032;5.152;2023-07-09T06:37:17;29;29;
79537;PMS5003;68989;52.032;5.152;2023-07-09T06:39:44;27;27;
79537;PMS5003;68989;52.032;5.152;2023-07-09T06:42:11;26;24;
79537;PMS5003;68989;52.032;5.152;2023-07-09T06:44:38;31;27;
79537;PMS5003;68989;52.032;5.152;2023-07-09T06:47:06;27;26;
79537;PMS5003;68989;52.032;5.152;2023-07-09T06:49:33;29;26;
79537;PMS5003;68989;52.032;5.152;2023-07-09T06:52:00;27;27;
79537;PMS5003;68989;52.032;5.152;2023-07-09T06:54:27;31;31;
79537;PMS5003;68989;52.032;5.152;2023-07-09T06:56:54;32;32;
79537;PMS5003;68989;52.032;5.152;2023-07-09T06:59:21;37;35;
79537;PMS5003;68989;52.032;5.152;2023-07-09T07:01:48;33;33;
79537;PMS5003;68989;52.032;5.152;2023-07-09T07:04:15;26;25;
79537;PMS5003;68989;52.032;5.152;2023-07-09T07:06:42;31;27;
79537;PMS5003;68989;52.032;5.152;2023-07-09T07:09:10;28;28;
79537;PMS5003;68989;52.032;5.152;2023-07-09T07:11:37;25;25;
79537;PMS5003;68989;52.032;5.152;2023-07-09T07:14:04;29;27;
79537;PMS5003;68989;52.032;5.152;2023-07-09T07:16:31;24;24;
79537;PMS5003;68989;52.032;5.152;2023-07-09T07:18:58;24;24;
79537;PMS5003;68989;52.032;5.152;2023-07-09T07:21:25;26;24;
79537;PMS5003;68989;52.032;5.152;2023-07-09T07:23:52;26;26;
79537;PMS5003;68989;52.032;5.152;2023-07-09T07:26:19;32;31;
79537;PMS5003;68989;52.032;5.152;2023-07-09T07:28:47;24;24;
79537;PMS5003;68989;52.032;5.152;2023-07-09T07:31:14;23;22;
79537;PMS5003;68989;52.032;5.152;2023-07-09T07:33:41;27;25;
79537;PMS5003;68989;52.032;5.152;2023-07-09T07:36:08;23;23;
79537;PMS5003;68989;52.032;5.152;2023-07-09T07:38:36;28;27;
79537;PMS5003;68989;52.032;5.152;2023-07-09T07:41:03;25;25;
79537;PMS5003;68989;52.032;5.152;2023-07-09T07:43:31;26;26;
79537;PMS5003;68989;52.032;5.152;2023-07-09T07:45:57;26;26;
79537;PMS5003;68989;52.032;5.152;2023-07-09T07:48:24;25;23;
79537;PMS5003;68989;52.032;5.152;2023-07-09T07:50:51;26;24;
79537;PMS5003;68989;52.032;5.152;2023-07-09T07:53:24;30;28;
79537;PMS5003;68989;52.032;5.152;2023-07-09T07:55:51;24;24;
79537;PMS5003;68989;52.032;5.152;2023-07-09T07:58:19;23;23;
79537;PMS5003;68989;52.032;5.152;2023-07-09T08:00:46;27;25;
79537;PMS5003;68989;52.032;5.152;2023-07-09T08:03:13;23;23;
79537;PMS5003;68989;52.032;5.152;2023-07-09T08:05:40;26;25;
79537;PMS5003;68989;52.032;5.152;2023-07-09T08:08:08;26;26;
79537;PMS5003;68989;52.032;5.152;2023-07-09T08:10:35;25;25;
79537;PMS5003;68989;52.032;5.152;2023-07-09T08:13:03;32;28;
79537;PMS5003;68989;52.032;5.152;2023-07-09T08:15:30;26;26;
79537;PMS5003;68989;52.032;5.152;2023-07-09T08:17:56;24;24;
79537;PMS5003;68989;52.032;5.152;2023-07-09T08:20:24;28;26;
79537;PMS5003;68989;52.032;5.152;2023-07-09T08:22:51;33;33;
79537;PMS5003;68989;52.032;5.152;2023-07-09T08:25:18;32;32;
79537;PMS5003;68989;52.032;5.152;2023-07-09T08:27:45;29;29;
79537;PMS5003;68989;52.032;5.152;2023-07-09T08:30:13;29;29;
79537;PMS5003;68989;52.032;5.152;2023-07-09T08:32:40;31;30;
79537;PMS5003;68989;52.032;5.152;2023-07-09T08:35:08;32;30;
79537;PMS5003;68989;52.032;5.152;2023-07-09T08:37:35;26;26;
79537;PMS5003;68989;52.032;5.152;2023-07-09T08:40:03;27;25;
79537;PMS5003;68989;52.032;5.152;2023-07-09T08:42:34;27;27;
79537;PMS5003;68989;52.032;5.152;2023-07-09T08:45:11;32;27;
79537;PMS5003;68989;52.032;5.152;2023-07-09T08:47:52;26;26;
79537;PMS5003;68989;52.032;5.152;2023-07-09T08:50:24;27;26;
79537;PMS5003;68989;52.032;5.152;2023-07-09T08:52:58;28;26;
79537;PMS5003;68989;52.032;5.152;2023-07-09T08:55:27;24;24;
79537;PMS5003;68989;52.032;5.152;2023-07-09T08:57:57;29;27;
79537;PMS5003;68989;52.032;5.152;2023-07-09T09:00:28;25;25;
79537;PMS5003;68989;52.032;5.152;2023-07-09T09:02:58;27;27;
79537;PMS5003;68989;52.032;5.152;2023-07-09T09:05:29;27;27;
79537;PMS5003;68989;52.032;5.152;2023-07-09T09:08:08;21;21;
79537;PMS5003;68989;52.032;5.152;2023-07-09T09:10:46;20;20;
79537;PMS5003;68989;52.032;5.152;2023-07-09T09:13:18;25;25;
79537;PMS5003;68989;52.032;5.152;2023-07-09T09:15:50;25;25;
79537;PMS5003;68989;52.032;5.152;2023-07-09T09:18:19;23;23;
79537;PMS5003;68989;52.032;5.152;2023-07-09T09:20:51;25;25;
79537;PMS5003;68989;52.032;5.152;2023-07-09T09:23:36;24;24;
79537;PMS5003;68989;52.032;5.152;2023-07-09T09:26:15;24;23;
79537;PMS5003;68989;52.032;5.152;2023-07-09T09:28:47;27;27;
79537;PMS5003;68989;52.032;5.152;2023-07-09T09:31:15;26;26;
79537;PMS5003;68989;52.032;5.152;2023-07-09T09:33:43;28;26;
79537;PMS5003;68989;52.032;5.152;2023-07-09T09:36:15;24;24;
79537;PMS5003;68989;52.032;5.152;2023-07-09T09:38:44;28;27;
79537;PMS5003;68989;52.032;5.152;2023-07-09T09:41:12;27;26;
79537;PMS5003;68989;52.032;5.152;2023-07-09T09:43:41;26;26;
79537;PMS5003;68989;52.032;5.152;2023-07-09T09:46:15;27;27;
79537;PMS5003;68989;52.032;5.152;2023-07-09T09:48:45;23;22;
79537;PMS5003;68989;52.032;5.152;2023-07-09T09:51:13;23;21;
79537;PMS5003;68989;52.032;5.152;2023-07-09T09:53:41;24;24;
79537;PMS5003;68989;52.032;5.152;2023-07-09T09:56:24;30;27;
79537;PMS5003;68989;52.032;5.152;2023-07-09T09:58:55;25;25;
79537;PMS5003;68989;52.032;5.152;2023-07-09T10:01:26;25;25;
79537;PMS5003;68989;52.032;5.152;2023-07-09T10:03:55;29;27;
79537;PMS5003;68989;52.032;5.152;2023-07-09T10:06:25;24;23;
79537;PMS5003;68989;52.032;5.152;2023-07-09T10:10:09;22;22;
79537;PMS5003;68989;52.032;5.152;2023-07-09T10:12:42;30;28;
79537;PMS5003;68989;52.032;5.152;2023-07-09T10:15:20;27;27;
79537;PMS5003;68989;52.032;5.152;2023-07-09T10:17:57;23;22;
79537;PMS5003;68989;52.032;5.152;2023-07-09T10:20:30;28;27;
79537;PMS5003;68989;52.032;5.152;2023-07-09T10:23:02;23;21;
79537;PMS5003;68989;52.032;5.152;2023-07-09T10:25:41;22;21;
79537;PMS5003;68989;52.032;5.152;2023-07-09T10:28:22;21;21;
79537;PMS5003;68989;52.032;5.152;2023-07-09T10:31:04;24;24;
79537;PMS5003;68989;52.032;5.152;2023-07-09T10:33:39;28;23;
79537;PMS5003;68989;52.032;5.152;2023-07-09T10:36:18;24;23;
79537;PMS5003;68989;52.032;5.152;2023-07-09T10:38:57;28;28;
79537;PMS5003;68989;52.032;5.152;2023-07-09T10:41:30;26;25;
79537;PMS5003;68989;52.032;5.152;2023-07-09T10:44:02;25;25;
79537;PMS5003;68989;52.032;5.152;2023-07-09T10:46:38;26;26;
79537;PMS5003;68989;52.032;5.152;2023-07-09T10:49:10;26;24;
79537;PMS5003;68989;52.032;5.152;2023-07-09T10:51:41;23;22;
79537;PMS5003;68989;52.032;5.152;2023-07-09T10:54:18;20;20;
79537;PMS5003;68989;52.032;5.152;2023-07-09T10:56:56;32;30;
79537;PMS5003;68989;52.032;5.152;2023-07-09T10:59:30;29;28;
79537;PMS5003;68989;52.032;5.152;2023-07-09T11:02:01;29;29;
79537;PMS5003;68989;52.032;5.152;2023-07-09T11:04:43;34;33;
79537;PMS5003;68989;52.032;5.152;2023-07-09T11:07:14;30;28;
79537;PMS5003;68989;52.032;5.152;2023-07-09T11:09:46;33;30;
79537;PMS5003;68989;52.032;5.152;2023-07-09T11:12:17;30;30;
79537;PMS5003;68989;52.032;5.152;2023-07-09T11:14:49;29;28;
79537;PMS5003;68989;52.032;5.152;2023-07-09T11:17:19;27;27;
79537;PMS5003;68989;52.032;5.152;2023-07-09T11:19:48;26;26;
79537;PMS5003;68989;52.032;5.152;2023-07-09T11:22:21;28;27;
79537;PMS5003;68989;52.032;5.152;2023-07-09T11:24:51;29;28;
79537;PMS5003;68989;52.032;5.152;2023-07-09T11:27:30;27;27;
79537;PMS5003;68989;52.032;5.152;2023-07-09T11:29:59;29;29;
79537;PMS5003;68989;52.032;5.152;2023-07-09T11:32:27;31;29;
79537;PMS5003;68989;52.032;5.152;2023-07-09T11:35:05;26;26;
79537;PMS5003;68989;52.032;5.152;2023-07-09T11:37:43;25;25;
79537;PMS5003;68989;52.032;5.152;2023-07-09T11:40:12;28;28;
79537;PMS5003;68989;52.032;5.152;2023-07-09T11:42:46;29;29;
79537;PMS5003;68989;52.032;5.152;2023-07-09T11:45:16;24;24;
79537;PMS5003;68989;52.032;5.152;2023-07-09T11:47:47;26;26;
79537;PMS5003;68989;52.032;5.152;2023-07-09T11:50:22;25;25;
79537;PMS5003;68989;52.032;5.152;2023-07-09T11:52:55;23;23;
79537;PMS5003;68989;52.032;5.152;2023-07-09T11:55:26;24;24;
79537;PMS5003;68989;52.032;5.152;2023-07-09T11:57:55;22;22;
79537;PMS5003;68989;52.032;5.152;2023-07-09T12:00:24;23;23;
79537;PMS5003;68989;52.032;5.152;2023-07-09T12:02:53;24;24;
79537;PMS5003;68989;52.032;5.152;2023-07-09T12:05:22;21;21;
79537;PMS5003;68989;52.032;5.152;2023-07-09T12:07:53;21;21;
79537;PMS5003;68989;52.032;5.152;2023-07-09T12:10:22;25;25;
79537;PMS5003;68989;52.032;5.152;2023-07-09T12:12:55;23;23;
79537;PMS5003;68989;52.032;5.152;2023-07-09T12:15:24;24;24;
79537;PMS5003;68989;52.032;5.152;2023-07-09T12:17:54;24;22;
79537;PMS5003;68989;52.032;5.152;2023-07-09T12:20:23;25;25;
79537;PMS5003;68989;52.032;5.152;2023-07-09T12:22:51;20;20;
79537;PMS5003;68989;52.032;5.152;2023-07-09T12:25:19;23;22;
79537;PMS5003;68989;52.032;5.152;2023-07-09T12:27:48;18;18;
79537;PMS5003;68989;52.032;5.152;2023-07-09T12:30:16;15;15;
79537;PMS5003;68989;52.032;5.152;2023-07-09T12:32:44;17;17;
79537;PMS5003;68989;52.032;5.152;2023-07-09T12:35:13;18;18;
79537;PMS5003;68989;52.032;5.152;2023-07-09T12:37:41;23;21;
79537;PMS5003;68989;52.032;5.152;2023-07-09T12:40:12;20;20;
79537;PMS5003;68989;52.032;5.152;2023-07-09T12:42:41;17;17;
79537;PMS5003;68989;52.032;5.152;2023-07-09T12:45:13;20;20;
79537;PMS5003;68989;52.032;5.152;2023-07-09T12:47:42;15;15;
79537;PMS5003;68989;52.032;5.152;2023-07-09T12:50:16;16;16;
79537;PMS5003;68989;52.032;5.152;2023-07-09T12:52:46;16;16;
79537;PMS5003;68989;52.032;5.152;2023-07-09T12:55:22;16;14;
79537;PMS5003;68989;52.032;5.152;2023-07-09T12:57:51;17;17;
79537;PMS5003;68989;52.032;5.152;2023-07-09T13:00:18;19;19;
79537;PMS5003;68989;52.032;5.152;2023-07-09T13:02:57;19;18;
79537;PMS5003;68989;52.032;5.152;2023-07-09T13:05:25;19;19;
79537;PMS5003;68989;52.032;5.152;2023-07-09T13:07:54;20;20;
79537;PMS5003;68989;52.032;5.152;2023-07-09T13:10:26;19;18;
79537;PMS5003;68989;52.032;5.152;2023-07-09T13:12:55;15;15;
79537;PMS5003;68989;52.032;5.152;2023-07-09T13:15:28;19;18;
79537;PMS5003;68989;52.032;5.152;2023-07-09T13:17:57;18;18;
79537;PMS5003;68989;52.032;5.152;2023-07-09T13:20:26;16;16;
79537;PMS5003;68989;52.032;5.152;2023-07-09T13:22:54;13;13;
79537;PMS5003;68989;52.032;5.152;2023-07-09T13:25:21;13;12;
79537;PMS5003;68989;52.032;5.152;2023-07-09T13:27:48;12;12;
79537;PMS5003;68989;52.032;5.152;2023-07-09T13:30:16;10;10;
79537;PMS5003;68989;52.032;5.152;2023-07-09T13:32:44;9;9;
79537;PMS5003;68989;52.032;5.152;2023-07-09T13:35:13;10;10;
79537;PMS5003;68989;52.032;5.152;2023-07-09T13:37:41;9;9;
79537;PMS5003;68989;52.032;5.152;2023-07-09T13:40:09;11;9;
79537;PMS5003;68989;52.032;5.152;2023-07-09T13:42:39;9;9;
79537;PMS5003;68989;52.032;5.152;2023-07-09T13:45:10;8;8;
79537;PMS5003;68989;52.032;5.152;2023-07-09T13:47:43;9;9;
79537;PMS5003;68989;52.032;5.152;2023-07-09T13:50:11;10;10;
79537;PMS5003;68989;52.032;5.152;2023-07-09T13:52:38;8;8;
79537;PMS5003;68989;52.032;5.152;2023-07-09T13:55:09;8;8;
79537;PMS5003;68989;52.032;5.152;2023-07-09T13:57:45;9;9;
79537;PMS5003;68989;52.032;5.152;2023-07-09T14:00:13;9;7;
79537;PMS5003;68989;52.032;5.152;2023-07-09T14:02:41;10;9;
79537;PMS5003;68989;52.032;5.152;2023-07-09T14:05:10;9;9;
79537;PMS5003;68989;52.032;5.152;2023-07-09T14:07:40;8;6;
79537;PMS5003;68989;52.032;5.152;2023-07-09T14:10:10;11;11;
79537;PMS5003;68989;52.032;5.152;2023-07-09T14:12:42;10;8;
79537;PMS5003;68989;52.032;5.152;2023-07-09T14:15:13;9;9;
79537;PMS5003;68989;52.032;5.152;2023-07-09T14:17:43;8;8;
79537;PMS5003;68989;52.032;5.152;2023-07-09T14:20:12;7;7;
79537;PMS5003;68989;52.032;5.152;2023-07-09T14:22:41;8;8;
79537;PMS5003;68989;52.032;5.152;2023-07-09T14:25:17;10;10;
79537;PMS5003;68989;52.032;5.152;2023-07-09T14:27:48;8;8;
79537;PMS5003;68989;52.032;5.152;2023-07-09T14:30:16;9;8;
79537;PMS5003;68989;52.032;5.152;2023-07-09T14:32:45;12;9;
79537;PMS5003;68989;52.032;5.152;2023-07-09T14:35:15;9;8;
79537;PMS5003;68989;52.032;5.152;2023-07-09T14:37:44;11;11;
79537;PMS5003;68989;52.032;5.152;2023-07-09T14:40:13;9;8;
79537;PMS5003;68989;52.032;5.152;2023-07-09T14:42:42;10;9;
79537;PMS5003;68989;52.032;5.152;2023-07-09T14:45:19;10;8;
79537;PMS5003;68989;52.032;5.152;2023-07-09T14:47:48;10;10;
79537;PMS5003;68989;52.032;5.152;2023-07-09T14:50:15;11;10;
79537;PMS5003;68989;52.032;5.152;2023-07-09T14:52:43;10;10;
79537;PMS5003;68989;52.032;5.152;2023-07-09T14:55:13;9;9;
79537;PMS5003;68989;52.032;5.152;2023-07-09T14:57:41;11;10;
79537;PMS5003;68989;52.032;5.152;2023-07-09T15:00:12;9;9;
79537;PMS5003;68989;52.032;5.152;2023-07-09T15:02:41;10;10;
79537;PMS5003;68989;52.032;5.152;2023-07-09T15:05:12;9;9;
79537;PMS5003;68989;52.032;5.152;2023-07-09T15:07:41;11;11;
79537;PMS5003;68989;52.032;5.152;2023-07-09T15:10:08;13;11;
79537;PMS5003;68989;52.032;5.152;2023-07-09T15:12:38;12;12;
79537;PMS5003;68989;52.032;5.152;2023-07-09T15:15:12;12;9;
79537;PMS5003;68989;52.032;5.152;2023-07-09T15:17:43;12;12;
79537;PMS5003;68989;52.032;5.152;2023-07-09T15:20:12;10;10;
79537;PMS5003;68989;52.032;5.152;2023-07-09T15:22:40;11;11;
79537;PMS5003;68989;52.032;5.152;2023-07-09T15:25:11;13;13;
79537;PMS5003;68989;52.032;5.152;2023-07-09T15:27:39;12;11;
79537;PMS5003;68989;52.032;5.152;2023-07-09T15:30:15;10;10;
79537;PMS5003;68989;52.032;5.152;2023-07-09T15:32:44;13;13;
79537;PMS5003;68989;52.032;5.152;2023-07-09T15:35:13;10;10;
79537;PMS5003;68989;52.032;5.152;2023-07-09T15:37:40;11;11;
79537;PMS5003;68989;52.032;5.152;2023-07-09T15:40:13;11;11;
79537;PMS5003;68989;52.032;5.152;2023-07-09T15:42:44;12;12;
79537;PMS5003;68989;52.032;5.152;2023-07-09T15:45:13;14;13;
79537;PMS5003;68989;52.032;5.152;2023-07-09T15:47:41;12;12;
79537;PMS5003;68989;52.032;5.152;2023-07-09T15:50:13;14;13;
79537;PMS5003;68989;52.032;5.152;2023-07-09T15:52:41;11;11;
79537;PMS5003;68989;52.032;5.152;2023-07-09T15:55:12;9;9;
79537;PMS5003;68989;52.032;5.152;2023-07-09T15:57:41;12;12;
79537;PMS5003;68989;52.032;5.152;2023-07-09T16:00:13;9;9;
79537;PMS5003;68989;52.032;5.152;2023-07-09T16:02:43;8;8;
79537;PMS5003;68989;52.032;5.152;2023-07-09T16:05:14;8;8;
79537;PMS5003;68989;52.032;5.152;2023-07-09T16:07:45;10;10;
79537;PMS5003;68989;52.032;5.152;2023-07-09T16:10:12;12;12;
79537;PMS5003;68989;52.032;5.152;2023-07-09T16:12:40;10;10;
79537;PMS5003;68989;52.032;5.152;2023-07-09T16:15:08;12;11;
79537;PMS5003;68989;52.032;5.152;2023-07-09T16:17:37;8;8;
79537;PMS5003;68989;52.032;5.152;2023-07-09T16:20:05;9;8;
79537;PMS5003;68989;52.032;5.152;2023-07-09T16:22:34;9;9;
79537;PMS5003;68989;52.032;5.152;2023-07-09T16:25:03;12;11;
79537;PMS5003;68989;52.032;5.152;2023-07-09T16:27:38;11;8;
79537;PMS5003;68989;52.032;5.152;2023-07-09T16:30:09;9;9;
79537;PMS5003;68989;52.032;5.152;2023-07-09T16:32:39;9;9;
79537;PMS5003;68989;52.032;5.152;2023-07-09T16:35:07;9;9;